sensor_id;sensor_type;location;lat;lon;timestamp;pressure;altitude;pressure_sealevel;temperature;humidity
60465;BME280;46314;52.392;9.758;2023-05-10T00:00:12;100018.69;;;15.93;45.17
60465;BME280;46314;52.392;9.758;2023-05-10T00:02:39;100007.06;;;15.66;46.08
60465;BME280;46314;52.392;9.758;2023-05-10T00:05:07;100006.31;;;15.17;47.42
60465;BME280;46314;52.392;9.758;2023-05-10T00:07:33;100001.25;;;15.71;45.97
60465;BME280;46314;52.392;9.758;2023-05-10T00:09:59;100000.91;;;15.73;45.92
60465;BME280;46314;52.392;9.758;2023-05-10T00:12:27;100001.03;;;15.64;46.15
60465;BME280;46314;52.392;9.758;2023-05-10T00:14:53;99993.34;;;14.87;48.03
60465;BME280;46314;52.392;9.758;2023-05-10T00:17:20;99989.88;;;15.15;47.39
60465;BME280;46314;52.392;9.758;2023-05-10T00:19:46;99993.72;;;15.10;47.76
60465;BME280;46314;52.392;9.758;2023-05-10T00:22:13;99993.84;;;15.26;47.46
60465;BME280;46314;52.392;9.758;2023-05-10T00:24:39;99992.41;;;15.82;46.36
60465;BME280;46314;52.392;9.758;2023-05-10T00:27:05;99984.41;;;15.43;47.36
60465;BME280;46314;52.392;9.758;2023-05-10T00:29:33;99984.06;;;15.32;47.31
60465;BME280;46314;52.392;9.758;2023-05-10T00:32:00;99983.38;;;14.99;48.59
60465;BME280;46314;52.392;9.758;2023-05-10T00:34:26;99982.09;;;15.08;48.27
60465;BME280;46314;52.392;9.758;2023-05-10T00:36:52;99972.88;;;15.32;47.71
60465;BME280;46314;52.392;9.758;2023-05-10T00:39:19;99979.16;;;15.42;47.72
60465;BME280;46314;52.392;9.758;2023-05-10T00:41:45;99978.03;;;15.18;48.08
60465;BME280;46314;52.392;9.758;2023-05-10T00:44:11;99977.28;;;14.84;49.38
60465;BME280;46314;52.392;9.758;2023-05-10T00:46:39;99979.41;;;15.00;48.72
60465;BME280;46314;52.392;9.758;2023-05-10T00:49:06;99981.72;;;14.98;48.69
60465;BME280;46314;52.392;9.758;2023-05-10T00:51:32;99977.06;;;15.02;48.82
60465;BME280;46314;52.392;9.758;2023-05-10T00:53:59;99975.91;;;14.90;49.21
60465;BME280;46314;52.392;9.758;2023-05-10T00:56:26;99973.59;;;15.05;48.91
60465;BME280;46314;52.392;9.758;2023-05-10T00:58:53;99972.53;;;15.46;47.94
60465;BME280;46314;52.392;9.758;2023-05-10T01:01:19;99975.91;;;15.40;48.24
60465;BME280;46314;52.392;9.758;2023-05-10T01:03:48;99964.19;;;15.09;48.73
60465;BME280;46314;52.392;9.758;2023-05-10T01:06:14;99968.53;;;14.61;50.38
60465;BME280;46314;52.392;9.758;2023-05-10T01:08:41;99963.41;;;14.63;50.26
60465;BME280;46314;52.392;9.758;2023-05-10T01:11:07;99962.41;;;15.17;49.08
60465;BME280;46314;52.392;9.758;2023-05-10T01:13:36;99957.41;;;14.86;50.02
60465;BME280;46314;52.392;9.758;2023-05-10T01:16:04;99955.56;;;14.77;50.36
60465;BME280;46314;52.392;9.758;2023-05-10T01:18:33;99956.56;;;14.61;50.63
60465;BME280;46314;52.392;9.758;2023-05-10T01:21:12;99952.50;;;14.83;50.14
60465;BME280;46314;52.392;9.758;2023-05-10T01:24:11;99954.41;;;14.57;51.01
60465;BME280;46314;52.392;9.758;2023-05-10T01:27:00;99956.69;;;14.64;51.26
60465;BME280;46314;52.392;9.758;2023-05-10T01:29:47;99967.53;;;15.03;50.17
60465;BME280;46314;52.392;9.758;2023-05-10T01:32:41;99963.56;;;14.79;50.88
60465;BME280;46314;52.392;9.758;2023-05-10T01:35:14;99956.59;;;14.85;50.61
60465;BME280;46314;52.392;9.758;2023-05-10T01:37:50;99964.94;;;14.73;51.20
60465;BME280;46314;52.392;9.758;2023-05-10T01:40:23;99964.63;;;14.99;50.67
60465;BME280;46314;52.392;9.758;2023-05-10T01:43:01;99962.63;;;14.87;51.22
60465;BME280;46314;52.392;9.758;2023-05-10T01:45:31;99955.44;;;14.41;52.86
60465;BME280;46314;52.392;9.758;2023-05-10T01:48:05;99961.84;;;14.87;51.53
60465;BME280;46314;52.392;9.758;2023-05-10T01:50:34;99958.66;;;14.30;53.42
60465;BME280;46314;52.392;9.758;2023-05-10T01:53:02;99951.91;;;14.65;52.54
60465;BME280;46314;52.392;9.758;2023-05-10T01:55:32;99957.84;;;14.30;53.34
60465;BME280;46314;52.392;9.758;2023-05-10T01:58:02;99952.31;;;14.54;52.85
60465;BME280;46314;52.392;9.758;2023-05-10T02:00:30;99956.47;;;14.82;52.15
60465;BME280;46314;52.392;9.758;2023-05-10T02:02:59;99964.28;;;15.25;50.95
60465;BME280;46314;52.392;9.758;2023-05-10T02:05:28;99957.81;;;14.63;52.34
60465;BME280;46314;52.392;9.758;2023-05-10T02:07:56;99964.31;;;14.55;53.19
60465;BME280;46314;52.392;9.758;2023-05-10T02:10:25;99961.13;;;14.32;53.55
60465;BME280;46314;52.392;9.758;2023-05-10T02:12:53;99955.19;;;14.79;52.24
60465;BME280;46314;52.392;9.758;2023-05-10T02:15:23;99951.81;;;15.10;51.91
60465;BME280;46314;52.392;9.758;2023-05-10T02:17:52;99958.81;;;14.92;52.09
60465;BME280;46314;52.392;9.758;2023-05-10T02:20:21;99954.50;;;14.94;52.21
60465;BME280;46314;52.392;9.758;2023-05-10T02:22:51;99945.88;;;15.24;51.70
60465;BME280;46314;52.392;9.758;2023-05-10T02:25:20;99953.91;;;15.26;51.57
60465;BME280;46314;52.392;9.758;2023-05-10T02:27:48;99953.38;;;14.50;53.41
60465;BME280;46314;52.392;9.758;2023-05-10T02:30:15;99951.47;;;15.00;52.56
60465;BME280;46314;52.392;9.758;2023-05-10T02:32:44;99960.88;;;14.95;52.64
60465;BME280;46314;52.392;9.758;2023-05-10T02:35:11;99953.44;;;14.62;53.50
60465;BME280;46314;52.392;9.758;2023-05-10T02:37:38;99954.38;;;14.33;54.37
60465;BME280;46314;52.392;9.758;2023-05-10T02:40:08;99954.22;;;14.63;53.77
60465;BME280;46314;52.392;9.758;2023-05-10T02:42:36;99955.81;;;14.51;54.22
60465;BME280;46314;52.392;9.758;2023-05-10T02:45:08;99952.63;;;14.62;53.81
60465;BME280;46314;52.392;9.758;2023-05-10T02:47:36;99945.78;;;14.05;55.44
60465;BME280;46314;52.392;9.758;2023-05-10T02:50:03;99956.53;;;14.15;55.57
60465;BME280;46314;52.392;9.758;2023-05-10T02:52:38;99951.09;;;13.97;56.28
60465;BME280;46314;52.392;9.758;2023-05-10T02:55:09;99945.66;;;14.01;56.31
60465;BME280;46314;52.392;9.758;2023-05-10T02:57:39;99948.53;;;14.26;56.05
60465;BME280;46314;52.392;9.758;2023-05-10T03:00:07;99946.00;;;13.78;57.50
60465;BME280;46314;52.392;9.758;2023-05-10T03:02:34;99943.13;;;14.08;56.24
60465;BME280;46314;52.392;9.758;2023-05-10T03:05:00;99934.25;;;13.73;57.61
60465;BME280;46314;52.392;9.758;2023-05-10T03:07:27;99932.41;;;13.77;57.93
60465;BME280;46314;52.392;9.758;2023-05-10T03:09:53;99934.84;;;13.99;57.56
60465;BME280;46314;52.392;9.758;2023-05-10T03:12:27;99927.38;;;14.25;56.82
60465;BME280;46314;52.392;9.758;2023-05-10T03:15:02;99933.78;;;14.25;56.98
60465;BME280;46314;52.392;9.758;2023-05-10T03:17:36;99935.88;;;14.62;56.01
60465;BME280;46314;52.392;9.758;2023-05-10T03:20:08;99942.94;;;14.26;57.10
60465;BME280;46314;52.392;9.758;2023-05-10T03:22:38;99943.56;;;14.44;56.71
60465;BME280;46314;52.392;9.758;2023-05-10T03:25:10;99937.97;;;14.31;57.26
60465;BME280;46314;52.392;9.758;2023-05-10T03:27:41;99944.94;;;13.92;58.51
60465;BME280;46314;52.392;9.758;2023-05-10T03:30:10;99939.69;;;13.69;60.39
60465;BME280;46314;52.392;9.758;2023-05-10T03:32:38;99944.34;;;13.65;60.22
60465;BME280;46314;52.392;9.758;2023-05-10T03:35:06;99939.59;;;13.99;59.40
60465;BME280;46314;52.392;9.758;2023-05-10T03:37:33;99940.50;;;13.70;61.00
60465;BME280;46314;52.392;9.758;2023-05-10T03:39:59;99946.75;;;13.88;60.52
60465;BME280;46314;52.392;9.758;2023-05-10T03:42:25;99948.75;;;13.66;61.60
60465;BME280;46314;52.392;9.758;2023-05-10T03:44:53;99943.63;;;13.68;61.98
60465;BME280;46314;52.392;9.758;2023-05-10T03:47:20;99940.03;;;13.68;61.95
60465;BME280;46314;52.392;9.758;2023-05-10T03:49:46;99945.69;;;13.29;63.55
60465;BME280;46314;52.392;9.758;2023-05-10T03:52:13;99939.28;;;13.37;63.73
60465;BME280;46314;52.392;9.758;2023-05-10T03:54:39;99944.13;;;13.91;62.28
60465;BME280;46314;52.392;9.758;2023-05-10T03:57:05;99942.13;;;13.92;62.22
60465;BME280;46314;52.392;9.758;2023-05-10T03:59:32;99942.22;;;14.16;62.20
60465;BME280;46314;52.392;9.758;2023-05-10T04:02:00;99943.06;;;13.96;62.68
60465;BME280;46314;52.392;9.758;2023-05-10T04:04:26;99946.81;;;14.00;63.27
60465;BME280;46314;52.392;9.758;2023-05-10T04:06:53;99935.88;;;13.95;63.94
60465;BME280;46314;52.392;9.758;2023-05-10T04:09:19;99936.84;;;13.57;65.74
60465;BME280;46314;52.392;9.758;2023-05-10T04:11:45;99939.63;;;13.78;65.11
60465;BME280;46314;52.392;9.758;2023-05-10T04:14:12;99941.53;;;13.86;65.20
60465;BME280;46314;52.392;9.758;2023-05-10T04:16:38;99942.75;;;13.97;65.56
60465;BME280;46314;52.392;9.758;2023-05-10T04:19:06;99940.84;;;13.47;67.12
60465;BME280;46314;52.392;9.758;2023-05-10T04:21:32;99947.00;;;13.61;67.84
60465;BME280;46314;52.392;9.758;2023-05-10T04:23:58;99940.09;;;13.80;67.20
60465;BME280;46314;52.392;9.758;2023-05-10T04:26:25;99945.94;;;13.87;67.02
60465;BME280;46314;52.392;9.758;2023-05-10T04:28:51;99944.19;;;14.04;67.50
60465;BME280;46314;52.392;9.758;2023-05-10T04:31:18;99943.41;;;13.94;67.27
60465;BME280;46314;52.392;9.758;2023-05-10T04:33:44;99943.63;;;13.89;68.04
60465;BME280;46314;52.392;9.758;2023-05-10T04:36:12;99953.38;;;13.62;68.86
60465;BME280;46314;52.392;9.758;2023-05-10T04:38:38;99946.16;;;13.61;69.74
60465;BME280;46314;52.392;9.758;2023-05-10T04:41:05;99952.06;;;13.30;71.50
60465;BME280;46314;52.392;9.758;2023-05-10T04:43:32;99944.53;;;13.60;70.97
60465;BME280;46314;52.392;9.758;2023-05-10T04:45:58;99950.31;;;14.30;68.38
60465;BME280;46314;52.392;9.758;2023-05-10T04:48:25;99950.91;;;13.60;71.33
60465;BME280;46314;52.392;9.758;2023-05-10T04:50:52;99955.41;;;13.23;72.95
60465;BME280;46314;52.392;9.758;2023-05-10T04:53:19;99950.78;;;13.57;71.60
60465;BME280;46314;52.392;9.758;2023-05-10T04:55:46;99954.97;;;13.12;73.48
60465;BME280;46314;52.392;9.758;2023-05-10T04:58:12;99958.59;;;13.42;73.35
60465;BME280;46314;52.392;9.758;2023-05-10T05:00:39;99954.25;;;13.54;72.13
60465;BME280;46314;52.392;9.758;2023-05-10T05:03:05;99960.41;;;13.59;72.49
60465;BME280;46314;52.392;9.758;2023-05-10T05:05:32;99981.50;;;13.69;72.25
60465;BME280;46314;52.392;9.758;2023-05-10T05:07:58;99979.44;;;13.99;71.90
60465;BME280;46314;52.392;9.758;2023-05-10T05:10:26;99973.00;;;13.87;72.90
60465;BME280;46314;52.392;9.758;2023-05-10T05:12:53;99962.28;;;13.76;73.58
60465;BME280;46314;52.392;9.758;2023-05-10T05:15:20;99979.91;;;14.01;72.54
60465;BME280;46314;52.392;9.758;2023-05-10T05:17:50;99994.56;;;13.98;72.99
60465;BME280;46314;52.392;9.758;2023-05-10T05:20:31;100010.13;;;13.99;73.84
60465;BME280;46314;52.392;9.758;2023-05-10T05:22:58;100005.81;;;14.44;72.97
60465;BME280;46314;52.392;9.758;2023-05-10T05:25:24;100011.09;;;14.04;74.61
60465;BME280;46314;52.392;9.758;2023-05-10T05:27:52;100026.34;;;13.17;78.59
60465;BME280;46314;52.392;9.758;2023-05-10T05:30:19;100030.78;;;13.18;79.90
60465;BME280;46314;52.392;9.758;2023-05-10T05:32:46;100023.22;;;13.57;78.66
60465;BME280;46314;52.392;9.758;2023-05-10T05:35:13;100026.53;;;13.50;79.17
60465;BME280;46314;52.392;9.758;2023-05-10T05:37:39;100030.38;;;14.09;77.69
60465;BME280;46314;52.392;9.758;2023-05-10T05:40:06;100032.09;;;14.01;77.03
60465;BME280;46314;52.392;9.758;2023-05-10T05:42:33;100037.06;;;13.95;78.13
60465;BME280;46314;52.392;9.758;2023-05-10T05:45:01;100033.53;;;14.28;77.15
60465;BME280;46314;52.392;9.758;2023-05-10T05:47:27;100032.91;;;13.80;78.98
60465;BME280;46314;52.392;9.758;2023-05-10T05:49:54;100033.63;;;14.53;76.33
60465;BME280;46314;52.392;9.758;2023-05-10T05:52:20;100029.06;;;14.48;77.17
60465;BME280;46314;52.392;9.758;2023-05-10T05:54:46;100036.09;;;14.12;78.81
60465;BME280;46314;52.392;9.758;2023-05-10T05:57:13;100034.66;;;14.27;78.35
60465;BME280;46314;52.392;9.758;2023-05-10T05:59:39;100042.03;;;13.90;80.66
60465;BME280;46314;52.392;9.758;2023-05-10T06:02:07;100037.84;;;14.38;79.00
60465;BME280;46314;52.392;9.758;2023-05-10T06:04:33;100042.13;;;14.56;78.97
60465;BME280;46314;52.392;9.758;2023-05-10T06:07:00;100038.53;;;14.14;80.12
60465;BME280;46314;52.392;9.758;2023-05-10T06:09:26;100045.38;;;14.04;80.52
60465;BME280;46314;52.392;9.758;2023-05-10T06:11:53;100050.31;;;13.77;81.88
60465;BME280;46314;52.392;9.758;2023-05-10T06:14:20;100045.78;;;14.15;81.34
60465;BME280;46314;52.392;9.758;2023-05-10T06:16:46;100051.03;;;13.66;84.28
60465;BME280;46314;52.392;9.758;2023-05-10T06:19:15;100048.41;;;14.11;82.01
60465;BME280;46314;52.392;9.758;2023-05-10T06:21:41;100047.88;;;14.18;82.93
60465;BME280;46314;52.392;9.758;2023-05-10T06:24:07;100054.50;;;14.68;80.32
60465;BME280;46314;52.392;9.758;2023-05-10T06:26:34;100053.44;;;15.06;78.91
60465;BME280;46314;52.392;9.758;2023-05-10T06:29:01;100052.38;;;15.10;78.72
60465;BME280;46314;52.392;9.758;2023-05-10T06:31:27;100053.16;;;14.86;80.66
60465;BME280;46314;52.392;9.758;2023-05-10T06:33:54;100052.25;;;15.07;79.66
60465;BME280;46314;52.392;9.758;2023-05-10T06:36:23;100058.38;;;14.88;81.17
60465;BME280;46314;52.392;9.758;2023-05-10T06:38:50;100056.69;;;14.41;83.21
60465;BME280;46314;52.392;9.758;2023-05-10T06:41:16;100065.59;;;14.55;82.52
60465;BME280;46314;52.392;9.758;2023-05-10T06:43:42;100073.00;;;14.18;84.40
60465;BME280;46314;52.392;9.758;2023-05-10T06:46:09;100067.66;;;14.04;85.65
60465;BME280;46314;52.392;9.758;2023-05-10T06:48:35;100065.06;;;14.41;84.60
60465;BME280;46314;52.392;9.758;2023-05-10T06:51:02;100073.09;;;14.64;83.80
60465;BME280;46314;52.392;9.758;2023-05-10T06:53:29;100072.41;;;14.67;82.42
60465;BME280;46314;52.392;9.758;2023-05-10T06:55:56;100073.13;;;14.22;85.66
60465;BME280;46314;52.392;9.758;2023-05-10T06:58:22;100078.94;;;14.71;83.67
60465;BME280;46314;52.392;9.758;2023-05-10T07:00:49;100083.50;;;14.33;86.02
60465;BME280;46314;52.392;9.758;2023-05-10T07:03:15;100079.22;;;14.36;86.18
60465;BME280;46314;52.392;9.758;2023-05-10T07:05:41;100079.97;;;14.66;84.19
60465;BME280;46314;52.392;9.758;2023-05-10T07:08:08;100090.78;;;14.47;86.70
60465;BME280;46314;52.392;9.758;2023-05-10T07:10:36;100080.94;;;14.49;86.19
60465;BME280;46314;52.392;9.758;2023-05-10T07:13:02;100087.88;;;14.01;89.24
60465;BME280;46314;52.392;9.758;2023-05-10T07:15:29;100099.28;;;14.50;88.27
60465;BME280;46314;52.392;9.758;2023-05-10T07:17:55;100095.66;;;14.58;86.65
60465;BME280;46314;52.392;9.758;2023-05-10T07:20:22;100093.84;;;14.75;87.27
60465;BME280;46314;52.392;9.758;2023-05-10T07:22:48;100098.34;;;15.01;87.04
60465;BME280;46314;52.392;9.758;2023-05-10T07:25:15;100103.53;;;14.56;88.62
60465;BME280;46314;52.392;9.758;2023-05-10T07:27:43;100099.88;;;14.77;88.01
60465;BME280;46314;52.392;9.758;2023-05-10T07:30:10;100106.25;;;14.99;87.21
60465;BME280;46314;52.392;9.758;2023-05-10T07:32:37;100113.03;;;14.55;91.83
60465;BME280;46314;52.392;9.758;2023-05-10T07:35:04;100115.09;;;14.25;92.84
60465;BME280;46314;52.392;9.758;2023-05-10T07:37:31;100109.88;;;15.11;88.86
60465;BME280;46314;52.392;9.758;2023-05-10T07:39:57;100117.88;;;14.46;91.82
60465;BME280;46314;52.392;9.758;2023-05-10T07:42:23;100120.34;;;14.48;93.24
60465;BME280;46314;52.392;9.758;2023-05-10T07:44:51;100119.94;;;14.91;92.64
60465;BME280;46314;52.392;9.758;2023-05-10T07:47:18;100123.66;;;14.83;92.53
60465;BME280;46314;52.392;9.758;2023-05-10T07:49:44;100131.72;;;14.97;91.44
60465;BME280;46314;52.392;9.758;2023-05-10T07:52:10;100133.09;;;15.37;89.88
60465;BME280;46314;52.392;9.758;2023-05-10T07:54:37;100143.06;;;15.13;90.59
60465;BME280;46314;52.392;9.758;2023-05-10T07:57:03;100135.97;;;15.15;91.43
60465;BME280;46314;52.392;9.758;2023-05-10T07:59:30;100135.41;;;15.22;92.47
60465;BME280;46314;52.392;9.758;2023-05-10T08:01:57;100142.13;;;15.21;92.39
60465;BME280;46314;52.392;9.758;2023-05-10T08:04:24;100144.72;;;15.26;91.95
60465;BME280;46314;52.392;9.758;2023-05-10T08:06:50;100145.31;;;15.20;93.12
60465;BME280;46314;52.392;9.758;2023-05-10T08:09:17;100152.81;;;15.65;91.42
60465;BME280;46314;52.392;9.758;2023-05-10T08:11:43;100161.56;;;15.88;89.29
60465;BME280;46314;52.392;9.758;2023-05-10T08:14:09;100162.97;;;16.19;88.55
60465;BME280;46314;52.392;9.758;2023-05-10T08:16:36;100166.97;;;15.35;91.94
60465;BME280;46314;52.392;9.758;2023-05-10T08:19:03;100168.56;;;16.06;89.16
60465;BME280;46314;52.392;9.758;2023-05-10T08:21:30;100171.97;;;15.87;89.30
60465;BME280;46314;52.392;9.758;2023-05-10T08:23:56;100180.09;;;16.17;88.76
60465;BME280;46314;52.392;9.758;2023-05-10T08:26:23;100184.25;;;16.60;86.44
60465;BME280;46314;52.392;9.758;2023-05-10T08:28:49;100185.59;;;16.14;88.66
60465;BME280;46314;52.392;9.758;2023-05-10T08:31:16;100189.03;;;16.47;86.87
60465;BME280;46314;52.392;9.758;2023-05-10T08:33:43;100186.59;;;16.34;87.96
60465;BME280;46314;52.392;9.758;2023-05-10T08:36:30;100188.31;;;16.63;86.71
60465;BME280;46314;52.392;9.758;2023-05-10T08:38:57;100185.97;;;16.65;85.08
60465;BME280;46314;52.392;9.758;2023-05-10T08:41:24;100188.38;;;16.79;84.82
60465;BME280;46314;52.392;9.758;2023-05-10T08:43:52;100186.00;;;17.21;83.57
60465;BME280;46314;52.392;9.758;2023-05-10T08:46:20;100188.47;;;16.82;84.87
60465;BME280;46314;52.392;9.758;2023-05-10T08:48:48;100190.69;;;16.49;86.90
60465;BME280;46314;52.392;9.758;2023-05-10T08:51:19;100193.19;;;16.13;89.28
60465;BME280;46314;52.392;9.758;2023-05-10T08:53:47;100194.16;;;16.58;89.12
60465;BME280;46314;52.392;9.758;2023-05-10T08:56:15;100196.19;;;17.14;85.04
60465;BME280;46314;52.392;9.758;2023-05-10T08:58:41;100200.16;;;16.84;84.63
60465;BME280;46314;52.392;9.758;2023-05-10T09:01:08;100209.38;;;16.97;84.90
60465;BME280;46314;52.392;9.758;2023-05-10T09:03:35;100203.44;;;16.74;87.43
60465;BME280;46314;52.392;9.758;2023-05-10T09:06:04;100211.59;;;16.79;85.42
60465;BME280;46314;52.392;9.758;2023-05-10T09:08:31;100221.97;;;15.89;89.92
60465;BME280;46314;52.392;9.758;2023-05-10T09:11:00;100228.47;;;16.42;88.51
60465;BME280;46314;52.392;9.758;2023-05-10T09:13:27;100224.72;;;16.63;87.24
60465;BME280;46314;52.392;9.758;2023-05-10T09:15:54;100230.00;;;16.40;86.84
60465;BME280;46314;52.392;9.758;2023-05-10T09:18:20;100242.88;;;16.69;85.11
60465;BME280;46314;52.392;9.758;2023-05-10T09:20:48;100234.66;;;16.60;84.07
60465;BME280;46314;52.392;9.758;2023-05-10T09:23:14;100242.63;;;16.87;83.16
60465;BME280;46314;52.392;9.758;2023-05-10T09:25:41;100247.78;;;16.84;82.39
60465;BME280;46314;52.392;9.758;2023-05-10T09:28:09;100252.69;;;16.88;81.93
60465;BME280;46314;52.392;9.758;2023-05-10T09:30:36;100251.06;;;16.62;83.19
60465;BME280;46314;52.392;9.758;2023-05-10T09:33:02;100256.72;;;17.02;82.24
60465;BME280;46314;52.392;9.758;2023-05-10T09:35:31;100250.41;;;17.06;82.89
60465;BME280;46314;52.392;9.758;2023-05-10T09:38:00;100258.47;;;17.35;81.67
60465;BME280;46314;52.392;9.758;2023-05-10T09:40:28;100262.88;;;17.20;81.25
60465;BME280;46314;52.392;9.758;2023-05-10T09:42:56;100260.97;;;17.25;81.66
60465;BME280;46314;52.392;9.758;2023-05-10T09:45:26;100265.47;;;17.41;80.71
60465;BME280;46314;52.392;9.758;2023-05-10T09:47:53;100264.22;;;17.71;77.69
60465;BME280;46314;52.392;9.758;2023-05-10T09:50:20;100261.91;;;17.45;77.91
60465;BME280;46314;52.392;9.758;2023-05-10T09:52:50;100269.13;;;16.77;82.14
60465;BME280;46314;52.392;9.758;2023-05-10T09:55:17;100274.81;;;17.62;79.24
60465;BME280;46314;52.392;9.758;2023-05-10T09:57:44;100277.41;;;17.54;78.21
60465;BME280;46314;52.392;9.758;2023-05-10T10:00:16;100280.78;;;17.60;77.61
60465;BME280;46314;52.392;9.758;2023-05-10T10:02:45;100283.22;;;17.62;77.80
60465;BME280;46314;52.392;9.758;2023-05-10T10:05:11;100284.66;;;17.27;78.81
60465;BME280;46314;52.392;9.758;2023-05-10T10:07:38;100292.72;;;17.73;78.47
60465;BME280;46314;52.392;9.758;2023-05-10T10:10:06;100291.63;;;18.06;76.37
60465;BME280;46314;52.392;9.758;2023-05-10T10:12:33;100296.16;;;17.94;76.89
60465;BME280;46314;52.392;9.758;2023-05-10T10:15:00;100299.72;;;17.79;77.34
60465;BME280;46314;52.392;9.758;2023-05-10T10:17:27;100297.72;;;17.79;76.47
60465;BME280;46314;52.392;9.758;2023-05-10T10:19:55;100301.59;;;17.59;77.42
60465;BME280;46314;52.392;9.758;2023-05-10T10:22:23;100300.66;;;17.55;78.24
60465;BME280;46314;52.392;9.758;2023-05-10T10:24:50;100301.75;;;17.50;78.79
60465;BME280;46314;52.392;9.758;2023-05-10T10:27:23;100298.25;;;17.69;78.32
60465;BME280;46314;52.392;9.758;2023-05-10T10:30:00;100297.88;;;18.15;76.95
60465;BME280;46314;52.392;9.758;2023-05-10T10:32:35;100302.53;;;17.79;76.77
60465;BME280;46314;52.392;9.758;2023-05-10T10:35:06;100301.31;;;17.92;77.76
60465;BME280;46314;52.392;9.758;2023-05-10T10:37:43;100297.59;;;18.36;76.62
60465;BME280;46314;52.392;9.758;2023-05-10T10:40:24;100301.03;;;17.97;78.76
60465;BME280;46314;52.392;9.758;2023-05-10T10:42:51;100297.53;;;18.16;77.39
60465;BME280;46314;52.392;9.758;2023-05-10T10:45:18;100299.50;;;18.32;75.66
60465;BME280;46314;52.392;9.758;2023-05-10T10:47:45;100295.81;;;18.79;74.81
60465;BME280;46314;52.392;9.758;2023-05-10T10:50:13;100302.25;;;19.15;73.74
60465;BME280;46314;52.392;9.758;2023-05-10T10:52:40;100300.88;;;18.22;75.06
60465;BME280;46314;52.392;9.758;2023-05-10T10:55:08;100307.59;;;19.20;71.20
60465;BME280;46314;52.392;9.758;2023-05-10T10:57:46;100301.06;;;18.97;71.54
60465;BME280;46314;52.392;9.758;2023-05-10T11:00:27;100305.34;;;19.10;70.37
60465;BME280;46314;52.392;9.758;2023-05-10T11:02:56;100304.69;;;19.17;69.80
60465;BME280;46314;52.392;9.758;2023-05-10T11:05:33;100304.28;;;19.34;68.55
60465;BME280;46314;52.392;9.758;2023-05-10T11:08:00;100305.78;;;19.90;68.93
60465;BME280;46314;52.392;9.758;2023-05-10T11:10:33;100297.88;;;18.63;70.94
60465;BME280;46314;52.392;9.758;2023-05-10T11:13:00;100302.84;;;19.63;67.50
60465;BME280;46314;52.392;9.758;2023-05-10T11:15:32;100306.41;;;20.03;66.48
60465;BME280;46314;52.392;9.758;2023-05-10T11:17:58;100298.91;;;20.34;65.34
60465;BME280;46314;52.392;9.758;2023-05-10T11:20:28;100300.72;;;20.22;65.83
60465;BME280;46314;52.392;9.758;2023-05-10T11:22:55;100303.91;;;20.44;64.24
60465;BME280;46314;52.392;9.758;2023-05-10T11:25:26;100305.72;;;19.86;66.04
60465;BME280;46314;52.392;9.758;2023-05-10T11:27:53;100310.25;;;20.14;66.33
60465;BME280;46314;52.392;9.758;2023-05-10T11:30:20;100308.72;;;19.74;66.61
60465;BME280;46314;52.392;9.758;2023-05-10T11:32:47;100308.16;;;18.90;69.82
60465;BME280;46314;52.392;9.758;2023-05-10T11:35:14;100310.06;;;20.27;64.30
60465;BME280;46314;52.392;9.758;2023-05-10T11:37:41;100309.06;;;20.61;62.07
60465;BME280;46314;52.392;9.758;2023-05-10T11:40:09;100319.75;;;21.36;59.58
60465;BME280;46314;52.392;9.758;2023-05-10T11:42:36;100311.97;;;20.95;60.08
60465;BME280;46314;52.392;9.758;2023-05-10T11:45:04;100306.53;;;20.56;61.22
60465;BME280;46314;52.392;9.758;2023-05-10T11:47:31;100310.44;;;22.00;57.75
60465;BME280;46314;52.392;9.758;2023-05-10T11:49:57;100314.47;;;21.99;56.64
60465;BME280;46314;52.392;9.758;2023-05-10T11:52:24;100308.84;;;22.02;57.67
60465;BME280;46314;52.392;9.758;2023-05-10T11:54:52;100307.22;;;21.03;59.92
60465;BME280;46314;52.392;9.758;2023-05-10T11:57:19;100314.69;;;20.88;58.57
60465;BME280;46314;52.392;9.758;2023-05-10T11:59:46;100324.56;;;21.62;57.20
60465;BME280;46314;52.392;9.758;2023-05-10T12:02:13;100315.66;;;20.99;59.54
60465;BME280;46314;52.392;9.758;2023-05-10T12:04:40;100316.06;;;21.02;59.75
60465;BME280;46314;52.392;9.758;2023-05-10T12:07:07;100309.13;;;22.31;56.57
60465;BME280;46314;52.392;9.758;2023-05-10T12:09:34;100318.31;;;22.24;55.92
60465;BME280;46314;52.392;9.758;2023-05-10T12:12:10;100314.59;;;22.13;56.09
60465;BME280;46314;52.392;9.758;2023-05-10T12:14:41;100318.53;;;22.05;54.45
60465;BME280;46314;52.392;9.758;2023-05-10T12:17:11;100320.31;;;21.83;54.72
60465;BME280;46314;52.392;9.758;2023-05-10T12:19:38;100312.56;;;22.13;55.34
60465;BME280;46314;52.392;9.758;2023-05-10T12:22:05;100313.84;;;21.14;58.27
60465;BME280;46314;52.392;9.758;2023-05-10T12:24:33;100317.81;;;21.10;56.62
60465;BME280;46314;52.392;9.758;2023-05-10T12:27:04;100313.94;;;21.52;56.35
60465;BME280;46314;52.392;9.758;2023-05-10T12:29:32;100314.88;;;21.63;55.29
60465;BME280;46314;52.392;9.758;2023-05-10T12:31:59;100315.97;;;21.51;57.11
60465;BME280;46314;52.392;9.758;2023-05-10T12:34:30;100323.19;;;20.19;58.58
60465;BME280;46314;52.392;9.758;2023-05-10T12:36:56;100331.22;;;20.17;60.72
60465;BME280;46314;52.392;9.758;2023-05-10T12:39:23;100326.84;;;21.23;58.39
60465;BME280;46314;52.392;9.758;2023-05-10T12:41:50;100326.94;;;21.30;57.40
60465;BME280;46314;52.392;9.758;2023-05-10T12:44:16;100337.38;;;21.90;55.89
60465;BME280;46314;52.392;9.758;2023-05-10T12:46:44;100330.88;;;21.89;54.07
60465;BME280;46314;52.392;9.758;2023-05-10T12:49:11;100333.59;;;21.79;56.43
60465;BME280;46314;52.392;9.758;2023-05-10T12:51:37;100332.41;;;22.21;54.59
60465;BME280;46314;52.392;9.758;2023-05-10T12:54:04;100331.78;;;21.97;55.00
60465;BME280;46314;52.392;9.758;2023-05-10T12:56:30;100339.88;;;21.99;54.21
60465;BME280;46314;52.392;9.758;2023-05-10T12:58:56;100338.97;;;21.53;54.70